Time;durP1;ratioP1;P1;durP2;ratioP2;P2;SDS_P1;SDS_P2;PMS_P1;PMS_P2;Temp;Humidity;BMP_temperature;BMP_pressure;BME280_temperature;BME280_humidity;BME280_pressure;Samples;Min_cycle;Max_cycle;Signal;HPM_P1;HPM_P2
2021/03/29 00:00:25;;;;;;;7.35;1.67;;;;;;;6.77;52.34;102257.72;5033766;28;20028;-68
2021/03/29 00:02:51;;;;;;;11.68;1.42;;;;;;;6.62;52.67;102264.69;5042435;28;20048;-69
2021/03/29 00:05:20;;;;;;;3.20;0.40;;;;;;;6.81;51.93;102257.72;5040314;28;20071;-68
2021/03/29 00:07:49;;;;;;;9.10;0.80;;;;;;;6.46;52.24;102253.44;5036121;28;20041;-69
2021/03/29 00:10:17;;;;;;;8.13;0.75;;;;;;;7.20;51.29;102252.38;5037797;28;20048;-68
2021/03/29 00:12:44;;;;;;;5.15;0.98;;;;;;;6.55;52.59;102256.88;5034617;28;20483;-68
2021/03/29 00:15:19;;;;;;;13.55;0.90;;;;;;;6.74;52.04;102257.72;5037930;28;20539;-68
2021/03/29 00:17:46;;;;;;;5.38;1.13;;;;;;;6.77;51.72;102249.91;5037904;28;20129;-68
2021/03/29 00:20:22;;;;;;;8.38;1.60;;;;;;;6.91;52.18;102251.63;5038270;28;20552;-71
2021/03/29 00:22:48;;;;;;;4.72;0.60;;;;;;;6.79;51.85;102243.84;5041459;28;20024;-71
2021/03/29 00:25:16;;;;;;;5.38;0.85;;;;;;;6.69;52.06;102244.75;5037932;28;20048;-69
2021/03/29 00:27:42;;;;;;;3.90;0.70;;;;;;;7.28;50.64;102235.03;5033959;28;20028;-71
2021/03/29 00:30:12;;;;;;;3.95;0.40;;;;;;;6.66;52.35;102223.94;5033046;28;20091;-71
2021/03/29 00:32:38;;;;;;;8.73;1.58;;;;;;;6.45;53.05;102236.13;5033590;28;20112;-70
2021/03/29 00:35:05;;;;;;;11.15;1.42;;;;;;;6.65;51.88;102219.63;5029592;28;20053;-70
2021/03/29 00:37:32;;;;;;;4.93;1.30;;;;;;;6.79;51.83;102217.00;5026900;28;20033;-71
2021/03/29 00:39:59;;;;;;;8.18;1.42;;;;;;;6.66;51.90;102214.44;5033331;28;20499;-70
2021/03/29 00:42:25;;;;;;;10.82;1.55;;;;;;;6.57;52.25;102203.19;5035523;28;20033;-69
2021/03/29 00:44:50;;;;;;;7.43;1.05;;;;;;;6.47;52.53;102208.41;5039786;28;20033;-69
2021/03/29 00:47:17;;;;;;;8.48;0.98;;;;;;;6.00;53.37;102221.38;5035956;28;20047;-69
2021/03/29 00:49:42;;;;;;;3.55;0.70;;;;;;;6.11;52.77;102216.22;5038166;28;20048;-69
2021/03/29 00:52:08;;;;;;;5.20;1.35;;;;;;;6.33;52.63;102225.75;5036449;28;20407;-69
2021/03/29 00:54:36;;;;;;;6.40;0.82;;;;;;;6.05;52.88;102230.88;5038576;28;20026;-71
2021/03/29 00:57:01;;;;;;;6.05;1.00;;;;;;;6.02;53.07;102225.72;5038583;28;20075;-71
2021/03/29 00:59:28;;;;;;;9.20;1.42;;;;;;;6.52;51.92;102215.34;5036611;28;20041;-71
2021/03/29 01:01:54;;;;;;;7.68;0.80;;;;;;;6.14;52.23;102213.59;5034241;28;20040;-69
2021/03/29 01:04:20;;;;;;;2.88;0.77;;;;;;;5.73;53.81;102217.88;5035987;28;20040;-69
2021/03/29 01:06:49;;;;;;;3.08;0.60;;;;;;;5.90;53.33;102223.09;5036787;28;20036;-70
2021/03/29 01:09:21;;;;;;;4.93;1.17;;;;;;;6.09;52.38;102223.97;5039030;28;20216;-69
2021/03/29 01:11:57;;;;;;;;;;;;;;;6.39;51.72;102225.72;5033013;28;20649;-69
2021/03/29 01:14:26;;;;;;;6.63;0.73;;;;;;;6.64;50.99;102220.50;5050306;28;20361;-69
2021/03/29 01:16:57;;;;;;;7.50;0.90;;;;;;;6.26;52.21;102216.16;5036079;28;20029;-69
2021/03/29 01:19:47;;;;;;;3.47;1.70;;;;;;;6.44;51.39;102217.91;5035876;28;20094;-70
2021/03/29 01:22:16;;;;;;;6.85;0.70;;;;;;;6.60;51.33;102218.78;5038835;28;20033;-69
2021/03/29 01:24:48;;;;;;;10.57;0.65;;;;;;;6.60;51.26;102221.38;5033524;28;20036;-70
2021/03/29 01:27:18;;;;;;;7.20;1.13;;;;;;;6.17;51.89;102219.66;5033991;28;20033;-68
2021/03/29 01:29:44;;;;;;;4.32;1.30;;;;;;;6.68;50.84;102223.06;5035661;28;20039;-70
2021/03/29 01:32:12;;;;;;;8.02;0.82;;;;;;;6.89;50.51;102216.97;5037171;28;20041;-69
2021/03/29 01:34:40;;;;;;;8.00;1.70;;;;;;;6.74;50.73;102206.63;5038220;28;20362;-68
2021/03/29 01:37:07;;;;;;;7.88;1.08;;;;;;;6.44;51.20;102203.22;5031511;28;20384;-68
2021/03/29 01:39:33;;;;;;;5.03;1.42;;;;;;;6.81;50.50;102203.13;5030669;28;20029;-68
2021/03/29 01:42:00;;;;;;;5.00;1.00;;;;;;;6.67;51.04;102204.91;5033529;28;20056;-69
2021/03/29 01:44:27;;;;;;;8.70;1.15;;;;;;;6.66;50.88;102201.47;5036557;28;20051;-70
2021/03/29 01:46:54;;;;;;;5.30;1.02;;;;;;;6.70;51.12;102207.50;5036741;28;20041;-69
2021/03/29 01:49:22;;;;;;;4.60;0.93;;;;;;;6.39;51.88;102202.34;5049404;28;20053;-70
2021/03/29 01:51:49;;;;;;;3.42;1.15;;;;;;;7.11;50.23;102198.72;5031360;28;20549;-69
2021/03/29 01:54:16;;;;;;;6.47;1.15;;;;;;;7.03;50.16;102213.47;5036192;28;20055;-69
2021/03/29 01:56:41;;;;;;;5.18;1.13;;;;;;;6.62;51.72;102201.44;5037823;28;20499;-69
2021/03/29 01:59:07;;;;;;;3.42;1.33;;;;;;;5.97;52.61;102201.50;5036870;28;20363;-69
2021/03/29 02:01:32;;;;;;;5.50;0.98;;;;;;;6.79;50.68;102194.47;5031177;28;20026;-69
2021/03/29 02:03:59;;;;;;;6.93;0.95;;;;;;;5.93;52.60;102194.56;5030680;28;20044;-70
2021/03/29 02:06:26;;;;;;;7.88;1.27;;;;;;;6.29;52.26;102188.53;5034162;28;20384;-69
2021/03/29 02:08:55;;;;;;;6.82;1.02;;;;;;;6.26;52.18;102195.41;5040069;28;20032;-69
2021/03/29 02:11:21;;;;;;;11.18;1.25;;;;;;;6.78;50.94;102197.09;5036746;28;20100;-69
2021/03/29 02:13:49;;;;;;;6.63;1.48;;;;;;;6.52;51.45;102203.19;5030214;28;20483;-68
2021/03/29 02:16:16;;;;;;;6.28;1.35;;;;;;;6.72;51.25;102190.16;5033989;28;20045;-69
2021/03/29 02:18:45;;;;;;;5.10;0.95;;;;;;;6.41;51.85;102187.63;5049488;28;20112;-67
2021/03/29 02:21:14;;;;;;;12.82;1.77;;;;;;;6.67;51.52;102184.13;5037201;28;20037;-71
2021/03/29 02:23:45;;;;;;;8.82;1.42;;;;;;;6.58;51.42;102177.22;5034342;28;20029;-67
2021/03/29 02:26:11;;;;;;;8.05;1.20;;;;;;;6.57;51.30;102166.81;5031312;28;20033;-65
2021/03/29 02:28:39;;;;;;;7.78;1.00;;;;;;;6.50;51.99;102153.00;5032393;28;20056;-65
2021/03/29 02:31:06;;;;;;;4.20;0.93;;;;;;;6.65;51.36;102158.16;5035067;28;20131;-66
2021/03/29 02:33:33;;;;;;;9.18;1.73;;;;;;;6.85;50.71;102160.69;5034808;28;20044;-66
2021/03/29 02:35:59;;;;;;;3.90;1.38;;;;;;;6.63;51.16;102165.06;5038676;28;20035;-68
2021/03/29 02:38:25;;;;;;;3.67;1.05;;;;;;;5.87;53.37;102173.78;5030140;28;20033;-68
2021/03/29 02:40:53;;;;;;;3.72;1.08;;;;;;;6.61;51.13;102172.00;5031085;28;20039;-67
2021/03/29 02:43:19;;;;;;;5.40;1.10;;;;;;;6.85;50.93;102162.41;5034643;28;20140;-68
2021/03/29 02:46:05;;;;;;;3.60;1.48;;;;;;;6.02;53.19;102155.63;5034113;28;20174;-68
2021/03/29 02:48:35;;;;;;;8.15;1.13;;;;;;;5.82;52.97;102159.97;5034524;28;20079;-68
2021/03/29 02:51:04;;;;;;;7.85;1.23;;;;;;;6.58;51.95;102156.44;5029969;28;20080;-68
2021/03/29 02:53:32;;;;;;;9.63;0.98;;;;;;;6.93;50.85;102162.38;5031901;28;20021;-68
2021/03/29 02:56:06;;;;;;;3.53;0.90;;;;;;;6.88;50.47;102152.84;5036468;28;20033;-68
2021/03/29 02:58:34;;;;;;;6.35;1.45;;;;;;;6.74;51.35;102154.66;5033786;28;20475;-69
2021/03/29 03:01:00;;;;;;;6.55;1.10;;;;;;;6.31;52.16;102170.34;5031882;28;20033;-68
2021/03/29 03:03:27;;;;;;;4.32;1.50;;;;;;;6.54;51.36;102165.09;5030372;28;20408;-69
2021/03/29 03:05:53;;;;;;;3.75;0.70;;;;;;;7.04;50.37;102165.78;5030503;28;20082;-69
2021/03/29 03:08:20;;;;;;;8.23;0.98;;;;;;;6.90;50.52;102169.31;5035844;28;20086;-70
2021/03/29 03:10:46;;;;;;;7.07;0.93;;;;;;;7.20;49.97;102170.06;5036436;28;20037;-70
2021/03/29 03:13:12;;;;;;;8.05;1.98;;;;;;;7.22;49.98;102177.84;5034669;28;20510;-69
2021/03/29 03:15:39;;;;;;;6.55;1.45;;;;;;;7.48;49.26;102169.88;5032536;28;20036;-68
2021/03/29 03:18:08;;;;;;;3.67;0.90;;;;;;;7.59;48.97;102165.50;5030075;28;20099;-68
2021/03/29 03:20:36;;;;;;;8.23;1.27;;;;;;;7.38;49.22;102160.41;5032014;28;20037;-68
2021/03/29 03:23:13;;;;;;;6.90;0.90;;;;;;;6.70;51.10;102176.31;5036835;28;20037;-68
2021/03/29 03:25:43;;;;;;;4.68;0.70;;;;;;;7.46;49.16;102182.91;5037519;28;20087;-68
2021/03/29 03:28:12;;;;;;;7.63;1.67;;;;;;;6.98;50.17;102169.28;5038637;28;20028;-70
2021/03/29 03:30:42;;;;;;;6.78;0.80;;;;;;;6.40;51.54;102179.88;5027441;28;20584;-69
2021/03/29 03:33:10;;;;;;;9.32;1.23;;;;;;;6.99;50.26;102180.56;5033404;28;20033;-68
2021/03/29 03:35:37;;;;;;;3.85;1.00;;;;;;;7.23;49.83;102161.38;5031927;28;20067;-70
2021/03/29 03:38:22;;;;;;;3.42;1.38;;;;;;;7.53;49.02;102170.72;5032062;28;20112;-70
2021/03/29 03:40:55;;;;;;;10.90;1.25;;;;;;;6.91;50.00;102189.25;5030124;28;20120;-69
2021/03/29 03:43:25;;;;;;;5.50;1.13;;;;;;;7.52;49.05;102189.81;5030468;28;20510;-68
2021/03/29 03:46:06;;;;;;;2.08;0.90;;;;;;;7.15;49.89;102204.75;5033537;28;20717;-68
2021/03/29 03:48:33;;;;;;;3.47;0.77;;;;;;;7.05;50.21;102206.53;5032627;28;20033;-69
2021/03/29 03:50:59;;;;;;;6.28;0.88;;;;;;;7.57;48.71;102206.28;5030357;28;20036;-69
2021/03/29 03:53:27;;;;;;;5.32;1.58;;;;;;;7.35;49.25;102205.50;5032800;28;20029;-70
2021/03/29 03:55:57;;;;;;;9.75;0.80;;;;;;;7.10;50.05;102202.16;5031931;28;20076;-68
2021/03/29 03:58:23;;;;;;;8.23;0.98;;;;;;;7.35;49.46;102204.66;5032742;28;20118;-68
2021/03/29 04:00:50;;;;;;;6.72;1.27;;;;;;;7.73;48.51;102194.94;5034363;28;20026;-69
2021/03/29 04:03:15;;;;;;;2.70;1.40;;;;;;;7.02;50.52;102204.81;5033994;28;20083;-69
2021/03/29 04:05:40;;;;;;;4.72;0.98;;;;;;;7.49;49.38;102188.09;5029325;28;20041;-68
2021/03/29 04:08:07;;;;;;;2.30;0.50;;;;;;;7.28;49.49;102209.88;5031701;28;20376;-67
2021/03/29 04:13:11;;;;;;;3.65;0.65;;;;;;;7.20;49.90;102205.56;5031124;28;20403;-66
2021/03/29 04:15:37;;;;;;;3.22;0.60;;;;;;;7.36;49.61;102206.41;5029960;28;20029;-69
2021/03/29 04:18:04;;;;;;;3.58;1.08;;;;;;;7.65;48.48;102204.50;5037809;28;20048;-67
2021/03/29 04:20:29;;;;;;;6.50;1.73;;;;;;;7.66;48.69;102211.44;5034528;28;20033;-67
2021/03/29 04:22:56;;;;;;;4.15;1.13;;;;;;;7.66;48.89;102208.81;5035883;28;20033;-68
2021/03/29 04:25:21;;;;;;;3.78;0.85;;;;;;;7.90;48.14;102202.59;5034223;28;20044;-68
2021/03/29 04:27:47;;;;;;;8.13;1.73;;;;;;;7.04;50.28;102200.47;5032985;28;20024;-67
2021/03/29 04:30:13;;;;;;;6.82;1.25;;;;;;;7.62;48.51;102203.66;5035621;28;20044;-66
2021/03/29 04:32:39;;;;;;;6.90;0.80;;;;;;;7.27;49.77;102192.56;5030363;28;20033;-67
2021/03/29 04:35:05;;;;;;;6.30;0.80;;;;;;;7.07;50.12;102195.25;5033983;28;20342;-68
2021/03/29 04:37:31;;;;;;;3.80;1.02;;;;;;;7.26;49.82;102201.22;5035146;28;20160;-67
2021/03/29 04:39:56;;;;;;;4.85;0.95;;;;;;;7.27;49.70;102202.97;5034526;28;20104;-67
2021/03/29 04:42:22;;;;;;;6.43;1.20;;;;;;;7.50;49.57;102209.78;5032061;28;20098;-67
2021/03/29 04:44:47;;;;;;;10.35;0.80;;;;;;;7.18;49.87;102205.59;5031764;28;20487;-67
2021/03/29 04:47:13;;;;;;;6.97;1.17;;;;;;;7.03;50.42;102214.31;5035171;28;20095;-67
2021/03/29 04:49:40;;;;;;;9.68;1.52;;;;;;;7.37;49.53;102214.16;5033954;28;20029;-67
2021/03/29 04:52:06;;;;;;;5.53;1.08;;;;;;;6.93;50.44;102201.38;5033465;28;20055;-67
2021/03/29 04:54:31;;;;;;;7.70;1.35;;;;;;;6.40;51.73;102205.84;5035107;28;20029;-68
2021/03/29 04:56:57;;;;;;;4.43;0.80;;;;;;;7.59;49.19;102214.94;5032377;28;20131;-68
2021/03/29 04:59:22;;;;;;;6.97;1.00;;;;;;;7.32;49.42;102216.78;5035942;28;20043;-68
2021/03/29 05:01:48;;;;;;;6.03;1.20;;;;;;;7.65;48.44;102220.13;5034517;28;20445;-70
2021/03/29 05:04:15;;;;;;;7.80;0.90;;;;;;;7.63;49.03;102226.22;5033525;28;20041;-68
2021/03/29 05:06:41;;;;;;;4.30;0.82;;;;;;;7.22;49.86;102220.34;5033926;28;20036;-67
2021/03/29 05:09:07;;;;;;;1.25;1.08;;;;;;;7.15;50.08;102213.41;5034654;28;20025;-68
2021/03/29 05:11:46;;;;;;;4.65;0.98;;;;;;;7.99;48.10;102213.81;5032409;28;20033;-68
2021/03/29 05:14:12;;;;;;;8.82;1.70;;;;;;;6.84;50.81;102212.66;5035873;28;20034;-66
2021/03/29 05:16:38;;;;;;;10.73;1.20;;;;;;;6.91;50.88;102209.19;5048148;28;20051;-67
2021/03/29 05:19:04;;;;;;;10.20;1.23;;;;;;;7.50;49.61;102225.38;5033054;28;20124;-68
2021/03/29 05:21:29;;;;;;;3.72;0.95;;;;;;;6.80;51.63;102227.41;5030661;28;20119;-68
2021/03/29 05:23:55;;;;;;;6.53;1.13;;;;;;;7.21;50.99;102221.19;5036701;28;20053;-68
2021/03/29 05:26:20;;;;;;;8.73;0.90;;;;;;;7.85;49.53;102219.13;5032448;28;20035;-68
2021/03/29 05:28:46;;;;;;;5.43;1.63;;;;;;;7.31;51.03;102220.28;5032608;28;20488;-68
2021/03/29 05:31:11;;;;;;;5.40;1.23;;;;;;;7.33;50.86;102218.53;5033774;28;20140;-67
2021/03/29 05:33:37;;;;;;;4.15;1.13;;;;;;;7.19;51.69;102222.94;5050131;28;20029;-67
2021/03/29 05:36:02;;;;;;;5.70;1.08;;;;;;;6.99;51.99;102223.00;5029398;28;20072;-67
2021/03/29 05:38:28;;;;;;;5.10;1.25;;;;;;;7.52;50.68;102234.91;5030055;28;20119;-67
2021/03/29 05:40:54;;;;;;;7.00;2.22;;;;;;;6.68;52.49;102219.63;5031967;28;20112;-69
2021/03/29 05:43:19;;;;;;;10.20;1.67;;;;;;;7.34;50.99;102227.19;5034973;28;20634;-68
2021/03/29 05:45:49;;;;;;;9.80;1.65;;;;;;;7.67;49.88;102223.59;5032033;28;20044;-68
2021/03/29 05:48:15;;;;;;;5.88;1.00;;;;;;;7.02;51.37;102223.00;5035355;28;20029;-69
2021/03/29 05:50:41;;;;;;;6.05;1.58;;;;;;;7.30;50.90;102235.88;5035200;28;20040;-69
2021/03/29 05:53:06;;;;;;;8.32;1.17;;;;;;;7.02;51.35;102236.00;5034615;28;20034;-69
2021/03/29 05:55:35;;;;;;;5.25;1.27;;;;;;;7.69;49.80;102247.88;5031714;28;20030;-67
2021/03/29 06:00:36;;;;;;;4.10;0.88;;;;;;;7.29;50.60;102247.19;5033187;28;20154;-68
2021/03/29 06:03:24;;;;;;;11.48;1.05;;;;;;;8.00;48.90;102263.25;5032911;28;20044;-68
2021/03/29 06:05:53;;;;;;;8.98;1.77;;;;;;;7.66;50.18;102273.03;5033732;28;20129;-69
2021/03/29 06:08:20;;;;;;;5.18;1.08;;;;;;;7.58;49.87;102265.28;5032517;28;20120;-68
2021/03/29 06:10:54;;;;;;;3.95;1.83;;;;;;;7.78;49.56;102253.88;5030884;28;20406;-67
2021/03/29 06:13:28;;;;;;;4.90;1.33;;;;;;;7.79;49.42;102240.00;5036836;28;20024;-69
2021/03/29 06:16:09;;;;;;;10.95;1.73;;;;;;;7.06;50.84;102265.44;5035990;28;20037;-69
2021/03/29 06:18:37;;;;;;;2.92;1.25;;;;;;;7.92;49.15;102244.25;5036759;28;20103;-69
2021/03/29 06:21:07;;;;;;;7.22;1.83;;;;;;;7.83;49.26;102254.72;5032217;28;20453;-71
2021/03/29 06:23:34;;;;;;;4.35;1.80;;;;;;;7.86;49.48;102254.69;5031879;28;20722;-69
2021/03/29 06:26:18;;;;;;;3.22;1.02;;;;;;;6.90;51.26;102259.41;5035112;28;20083;-67
2021/03/29 06:28:45;;;;;;;2.72;1.27;;;;;;;8.23;48.56;102255.28;5031637;28;20033;-68
2021/03/29 06:31:32;;;;;;;8.25;1.75;;;;;;;7.97;49.05;102258.09;5032097;28;20567;-67
2021/03/29 06:33:59;;;;;;;8.38;1.45;;;;;;;8.04;48.76;102246.75;5033394;28;20045;-69
2021/03/29 06:36:38;;;;;;;11.75;1.92;;;;;;;7.47;50.49;102248.81;5033371;28;20040;-68
2021/03/29 06:39:12;;;;;;;2.55;1.20;;;;;;;7.67;49.71;102244.41;5035271;28;20101;-67
2021/03/29 06:41:38;;;;;;;8.85;1.35;;;;;;;7.73;49.51;102243.50;5031637;28;20029;-67
2021/03/29 06:44:05;;;;;;;5.30;1.85;;;;;;;7.26;51.09;102240.22;5033293;28;20122;-67
2021/03/29 06:46:31;;;;;;;7.45;1.20;;;;;;;7.17;51.29;102239.41;5030879;28;20037;-66
2021/03/29 06:49:00;;;;;;;5.88;1.63;;;;;;;7.74;49.86;102232.22;5032891;28;20037;-67
2021/03/29 06:51:30;;;;;;;7.28;1.30;;;;;;;7.92;49.73;102259.88;5033924;28;20485;-67
2021/03/29 06:54:01;;;;;;;4.43;0.95;;;;;;;8.63;48.11;102267.09;5052345;28;20030;-67
2021/03/29 06:56:30;;;;;;;7.57;1.42;;;;;;;8.40;48.37;102268.16;5032308;28;20043;-68
2021/03/29 06:59:19;;;;;;;5.95;1.85;;;;;;;9.01;46.94;102263.25;5030418;28;20369;-67
2021/03/29 07:01:53;;;;;;;4.68;1.50;;;;;;;8.34;48.28;102283.88;5030826;28;20030;-68
2021/03/29 07:04:23;;;;;;;6.18;1.50;;;;;;;8.19;48.90;102281.38;5034966;28;20423;-66
2021/03/29 07:06:50;;;;;;;4.53;1.02;;;;;;;8.62;47.84;102289.69;5031554;28;20029;-66
2021/03/29 07:09:19;;;;;;;11.02;1.13;;;;;;;7.79;49.70;102294.66;5033409;28;20101;-68
2021/03/29 07:11:46;;;;;;;6.57;1.40;;;;;;;7.63;50.03;102286.94;5028877;28;20037;-67
2021/03/29 07:14:12;;;;;;;6.00;1.05;;;;;;;7.93;49.14;102298.03;5033106;28;20028;-66
2021/03/29 07:16:40;;;;;;;8.63;1.55;;;;;;;8.55;48.06;102268.03;5030823;28;20048;-67
2021/03/29 07:19:08;;;;;;;6.13;1.33;;;;;;;9.02;47.29;102278.88;5031735;28;20033;-67
2021/03/29 07:21:35;;;;;;;7.35;2.30;;;;;;;10.06;44.21;102294.97;5029807;28;20124;-69
2021/03/29 07:24:01;;;;;;;9.85;1.88;;;;;;;12.68;38.49;102288.72;5034851;28;20091;-67
2021/03/29 07:26:52;;;;;;;9.80;1.60;;;;;;;13.05;37.71;102277.25;5033949;28;20025;-68
2021/03/29 07:29:19;;;;;;;6.65;1.83;;;;;;;14.38;34.52;102278.44;5031856;28;20740;-67
2021/03/29 07:31:49;;;;;;;3.33;0.75;;;;;;;14.23;35.23;102296.47;5030809;28;20037;-67
2021/03/29 07:34:14;;;;;;;9.95;1.00;;;;;;;14.92;33.47;102290.63;5035992;28;20043;-68
2021/03/29 07:36:42;;;;;;;8.18;1.73;;;;;;;14.50;34.50;102299.97;5029520;28;20128;-68
2021/03/29 07:39:08;;;;;;;7.05;1.33;;;;;;;13.79;35.29;102290.00;5023695;28;20750;-67
2021/03/29 07:41:34;;;;;;;7.25;1.48;;;;;;;14.95;33.88;102285.25;5030397;28;20037;-68
2021/03/29 07:44:13;;;;;;;9.80;1.48;;;;;;;14.83;34.51;102293.59;5031830;28;20398;-67
2021/03/29 07:46:41;;;;;;;7.88;1.35;;;;;;;15.26;32.96;102306.09;5031274;28;20479;-68
2021/03/29 07:49:46;;;;;;;6.30;1.55;;;;;;;14.89;35.02;102299.50;5031749;28;20120;-67
2021/03/29 07:52:57;;;;;;;7.55;1.63;;;;;;;14.34;35.45;102303.97;5039611;28;20037;-67
2021/03/29 07:55:30;;;;;;;6.22;0.70;;;;;;;15.07;33.42;102311.13;5033955;28;20048;-66
2021/03/29 07:57:55;;;;;;;6.60;2.08;;;;;;;13.36;36.82;102330.66;5076128;28;20033;-67
2021/03/29 08:00:24;;;;;;;11.70;2.42;;;;;;;16.11;32.25;102339.75;5037548;28;20047;-68
2021/03/29 08:02:50;;;;;;;5.82;1.80;;;;;;;14.96;33.55;102344.88;5037645;28;20033;-67
2021/03/29 08:05:34;;;;;;;6.45;1.80;;;;;;;15.84;32.40;102361.00;5038936;28;20041;-67
2021/03/29 08:08:02;;;;;;;7.55;1.77;;;;;;;15.90;32.25;102350.19;5042551;28;20040;-67
2021/03/29 08:11:06;;;;;;;7.22;1.25;;;;;;;15.83;32.17;102369.81;5059033;28;20029;-67
2021/03/29 08:13:55;;;;;;;8.75;1.08;;;;;;;17.17;30.47;102372.25;5036716;28;20120;-66
2021/03/29 08:16:20;;;;;;;10.45;1.00;;;;;;;15.65;32.76;102370.53;5038836;28;20040;-67
2021/03/29 08:19:07;;;;;;;6.13;1.90;;;;;;;14.45;35.59;102379.94;5041223;28;20021;-66
2021/03/29 08:21:55;;;;;;;6.07;1.13;;;;;;;14.65;34.80;102380.16;5035917;28;20025;-68
2021/03/29 08:24:31;;;;;;;12.27;2.00;;;;;;;14.55;35.60;102386.66;5036776;28;20442;-67
2021/03/29 08:27:24;;;;;;;5.93;1.38;;;;;;;14.70;34.84;102391.41;5037413;28;20025;-67
2021/03/29 08:29:53;;;;;;;12.65;2.00;;;;;;;13.38;37.97;102384.84;5033916;28;20403;-67
2021/03/29 08:32:24;;;;;;;7.80;1.38;;;;;;;15.35;33.59;102381.28;5038099;28;20033;-67
2021/03/29 08:34:52;;;;;;;9.30;1.27;;;;;;;14.14;36.14;102397.56;5037074;28;20037;-68
2021/03/29 08:37:28;;;;;;;6.40;1.00;;;;;;;14.00;36.37;102393.59;5036713;28;20041;-67
2021/03/29 08:39:57;;;;;;;11.73;2.22;;;;;;;14.18;36.45;102397.44;5036674;28;20129;-67
2021/03/29 08:42:26;;;;;;;10.45;2.05;;;;;;;14.61;36.42;102412.72;5037901;28;20032;-68
2021/03/29 08:44:53;;;;;;;10.90;2.70;;;;;;;13.98;37.87;102400.69;5040538;28;20052;-67
2021/03/29 08:47:24;;;;;;;9.95;2.15;;;;;;;14.33;36.74;102400.44;5039804;28;20074;-67
2021/03/29 08:49:55;;;;;;;10.10;1.77;;;;;;;15.15;35.51;102397.78;5035197;28;20535;-68
2021/03/29 08:52:22;;;;;;;7.03;1.42;;;;;;;14.47;36.65;102400.03;5060437;28;20292;-67
2021/03/29 08:54:49;;;;;;;6.78;1.20;;;;;;;15.13;36.05;102397.81;5037003;28;20031;-66
2021/03/29 08:57:15;;;;;;;7.22;1.23;;;;;;;15.05;36.47;102389.31;5036836;28;20503;-67
2021/03/29 08:59:41;;;;;;;11.68;2.35;;;;;;;15.67;35.03;102395.03;5038183;28;20044;-67
2021/03/29 09:02:16;;;;;;;2.58;1.27;;;;;;;14.28;38.05;102398.88;5041236;28;20025;-68
2021/03/29 09:04:54;;;;;;;7.93;1.75;;;;;;;14.95;36.78;102406.38;5039347;28;20044;-68
2021/03/29 09:07:21;;;;;;;3.20;1.10;;;;;;;14.27;37.38;102407.66;5038925;28;20029;-67
2021/03/29 09:09:47;;;;;;;6.68;1.77;;;;;;;13.82;38.55;102400.28;5032878;28;20608;-67
2021/03/29 09:12:30;;;;;;;8.45;2.03;;;;;;;13.27;39.36;102415.78;5035165;28;20048;-68
2021/03/29 09:14:56;;;;;;;9.70;2.47;;;;;;;12.67;41.68;102412.91;5031327;28;20033;-67
2021/03/29 09:17:23;;;;;;;4.72;1.40;;;;;;;13.52;39.48;102414.22;5035196;28;20040;-67
2021/03/29 09:19:49;;;;;;;8.63;1.33;;;;;;;11.67;43.56;102411.63;5034288;28;20111;-68
2021/03/29 09:22:26;;;;;;;9.35;1.77;;;;;;;11.81;42.94;102429.69;5033982;28;20129;-67
2021/03/29 09:24:52;;;;;;;7.72;1.67;;;;;;;13.46;40.82;102418.78;5040310;28;20546;-67
2021/03/29 09:27:17;;;;;;;12.00;1.65;;;;;;;12.79;41.67;102421.41;5035059;28;20058;-67
2021/03/29 09:29:43;;;;;;;5.80;1.88;;;;;;;12.35;41.91;102428.53;5031934;28;20065;-67
2021/03/29 09:32:13;;;;;;;4.90;1.85;;;;;;;12.53;42.41;102441.22;5034569;28;20029;-67
2021/03/29 09:34:39;;;;;;;8.50;1.52;;;;;;;14.05;40.11;102441.63;5039793;28;20029;-66
2021/03/29 09:37:17;;;;;;;10.90;2.28;;;;;;;14.10;39.41;102439.75;5033324;28;20064;-67
2021/03/29 09:39:42;;;;;;;7.35;2.22;;;;;;;13.14;40.73;102443.25;5045006;28;20033;-66
2021/03/29 09:42:08;;;;;;;9.05;1.95;;;;;;;13.48;40.64;102438.00;5044822;28;20110;-67
2021/03/29 09:44:34;;;;;;;10.13;1.73;;;;;;;13.19;41.52;102447.50;5043395;28;20325;-67
2021/03/29 09:46:59;;;;;;;7.55;1.67;;;;;;;15.03;38.59;102441.16;5041547;28;20029;-67
2021/03/29 09:49:26;;;;;;;12.55;2.45;;;;;;;14.97;38.24;102442.25;5041670;28;20211;-67
2021/03/29 09:52:08;;;;;;;6.18;2.13;;;;;;;14.73;38.05;102430.75;5022403;28;20029;-67
2021/03/29 09:54:44;;;;;;;11.65;1.95;;;;;;;15.31;37.78;102440.25;5036611;28;20034;-67
2021/03/29 09:57:14;;;;;;;5.80;2.00;;;;;;;14.76;38.33;102443.81;5037664;28;20040;-66
2021/03/29 09:59:42;;;;;;;13.50;3.05;;;;;;;14.50;38.92;102447.31;5039022;28;20041;-67
2021/03/29 10:02:25;;;;;;;6.05;1.58;;;;;;;14.33;39.19;102439.03;5041856;28;20040;-68
2021/03/29 10:05:04;;;;;;;8.50;2.38;;;;;;;13.89;40.38;102444.72;5033302;28;20038;-67
2021/03/29 10:07:30;;;;;;;11.13;3.00;;;;;;;14.05;39.11;102449.53;5035602;28;20075;-67
2021/03/29 10:10:03;;;;;;;6.68;1.77;;;;;;;15.21;37.66;102452.00;5033015;28;20056;-67
2021/03/29 10:12:33;;;;;;;15.73;2.70;;;;;;;16.66;36.33;102452.75;5034927;28;20486;-66
2021/03/29 10:15:05;;;;;;;6.72;1.90;;;;;;;15.67;37.93;102455.66;5029963;28;20395;-67
2021/03/29 10:17:31;;;;;;;12.13;2.33;;;;;;;15.61;36.18;102463.78;5035593;28;20579;-67
2021/03/29 10:20:08;;;;;;;6.00;1.83;;;;;;;14.59;38.98;102472.47;5031870;28;20036;-67
2021/03/29 10:22:34;;;;;;;5.78;2.10;;;;;;;13.15;41.61;102468.63;5033396;28;20446;-68
2021/03/29 10:25:14;;;;;;;7.07;1.90;;;;;;;13.71;40.98;102464.50;5041465;28;20096;-67
2021/03/29 10:27:48;;;;;;;12.45;2.10;;;;;;;14.29;39.52;102453.19;5029609;28;20040;-67
2021/03/29 10:30:19;;;;;;;9.65;1.90;;;;;;;14.98;38.87;102490.50;5036058;28;20041;-67
2021/03/29 10:32:50;;;;;;;18.02;2.65;;;;;;;15.11;38.35;102497.06;5032080;28;21674;-67
2021/03/29 10:35:16;;;;;;;9.45;2.20;;;;;;;13.76;40.35;102480.13;5032277;28;20036;-67
2021/03/29 10:37:42;;;;;;;9.40;2.55;;;;;;;14.55;39.03;102484.84;5029562;28;20040;-67
2021/03/29 10:40:08;;;;;;;7.80;2.30;;;;;;;13.75;40.72;102483.69;5032743;28;20032;-67
2021/03/29 10:42:36;;;;;;;9.73;2.10;;;;;;;14.16;40.23;102489.50;5030163;28;20064;-67
2021/03/29 10:45:05;;;;;;;4.35;1.52;;;;;;;14.64;39.51;102486.34;5027209;28;20045;-67
2021/03/29 10:47:31;;;;;;;12.85;2.60;;;;;;;14.03;40.71;102493.41;5029598;28;20033;-68
2021/03/29 10:49:57;;;;;;;5.50;2.22;;;;;;;14.11;40.81;102491.41;5028309;28;20025;-68
2021/03/29 10:52:22;;;;;;;8.55;2.78;;;;;;;13.42;41.86;102496.78;5037515;28;20036;-68
2021/03/29 10:54:49;;;;;;;9.15;2.40;;;;;;;13.57;41.33;102495.56;5028959;28;20459;-68
2021/03/29 10:57:15;;;;;;;11.27;3.13;;;;;;;13.43;42.30;102502.91;5032670;28;20045;-67
2021/03/29 10:59:40;;;;;;;14.45;2.83;;;;;;;12.98;43.49;102506.66;5031108;28;20075;-67
2021/03/29 11:02:06;;;;;;;10.77;2.70;;;;;;;12.92;43.32;102506.81;5025454;28;20061;-67
2021/03/29 11:04:32;;;;;;;5.05;2.17;;;;;;;14.31;41.08;102502.19;5030719;28;20076;-67
2021/03/29 11:06:57;;;;;;;6.93;4.28;;;;;;;14.71;40.24;102508.91;5019143;28;20033;-68
2021/03/29 11:09:24;;;;;;;6.90;2.38;;;;;;;14.32;41.36;102500.44;5032109;28;20130;-68
2021/03/29 11:11:50;;;;;;;12.10;2.10;;;;;;;14.52;39.93;102515.63;5018891;28;20037;-66
2021/03/29 11:14:16;;;;;;;8.43;2.20;;;;;;;13.65;41.97;102504.09;5032204;28;20872;-67
2021/03/29 11:16:41;;;;;;;7.53;2.28;;;;;;;13.78;41.46;102509.00;5032947;28;20036;-67
2021/03/29 11:19:07;;;;;;;9.43;2.60;;;;;;;13.65;41.85;102518.97;5034792;28;20041;-66
2021/03/29 11:21:33;;;;;;;9.48;2.20;;;;;;;14.74;40.50;102510.56;5033423;28;20123;-68
2021/03/29 11:24:00;;;;;;;9.70;1.83;;;;;;;13.87;41.76;102525.38;5014156;28;20041;-67
2021/03/29 11:26:28;;;;;;;5.75;2.50;;;;;;;13.32;42.37;102530.31;5035943;28;20043;-68
2021/03/29 11:28:54;;;;;;;11.43;2.25;;;;;;;13.02;43.16;102539.78;5027140;28;20037;-67
2021/03/29 11:31:21;;;;;;;11.35;2.03;;;;;;;13.39;42.71;102532.78;5032531;28;20108;-67
2021/03/29 11:33:47;;;;;;;6.75;2.08;;;;;;;14.25;40.92;102543.59;5028596;28;20028;-68
2021/03/29 11:36:12;;;;;;;7.55;2.60;;;;;;;13.41;42.44;102537.09;5028191;28;20111;-68
2021/03/29 11:38:39;;;;;;;8.75;2.35;;;;;;;13.46;42.74;102544.84;5029975;28;20051;-66
2021/03/29 11:41:05;;;;;;;5.22;1.98;;;;;;;13.75;42.35;102551.16;5028335;28;20492;-68
2021/03/29 11:43:31;;;;;;;9.15;2.33;;;;;;;14.57;40.42;102555.84;5029440;28;20037;-68